createdAt,value
2023-05-16T00:01:35.952Z,16.35
2023-05-16T00:04:06.206Z,16.37
2023-05-16T00:06:36.381Z,16.83
2023-05-16T00:09:14.636Z,16.84
2023-05-16T00:11:46.757Z,16.81
2023-05-16T00:17:15.947Z,16.72
2023-05-16T00:19:45.647Z,16.04
2023-05-16T00:22:14.840Z,15.96
2023-05-16T00:25:01.087Z,15.99
2023-05-16T00:27:28.914Z,16.56
2023-05-16T00:29:58.316Z,16.55
2023-05-16T00:32:37.451Z,16.36
2023-05-16T00:38:05.374Z,16.43
2023-05-16T00:40:33.836Z,15.96
2023-05-16T00:43:03.700Z,16.40
2023-05-16T00:45:31.589Z,15.91
2023-05-16T00:48:00.814Z,15.94
2023-05-16T00:50:28.837Z,16.39
2023-05-16T00:52:57.292Z,16.14
2023-05-16T00:55:25.435Z,16.59
2023-05-16T00:57:53.537Z,16.28
2023-05-16T01:00:21.991Z,16.70
2023-05-16T01:02:53.752Z,16.61
2023-05-16T01:05:23.789Z,16.19
2023-05-16T01:07:51.209Z,16.36
2023-05-16T01:13:30.130Z,16.30
2023-05-16T01:16:06.159Z,16.27
2023-05-16T01:18:42.185Z,16.33
2023-05-16T01:21:17.138Z,16.30
2023-05-16T01:23:53.073Z,16.29
2023-05-16T01:26:23.334Z,16.71
2023-05-16T01:28:51.616Z,16.72
2023-05-16T01:31:19.276Z,16.23
2023-05-16T01:33:46.676Z,16.38
2023-05-16T01:36:21.990Z,16.30
2023-05-16T01:39:00.969Z,16.40
2023-05-16T01:41:39.628Z,16.21
2023-05-16T01:44:11.355Z,16.67
2023-05-16T01:46:44.354Z,16.20
2023-05-16T01:49:17.236Z,16.25
2023-05-16T01:51:51.691Z,16.19
2023-05-16T01:54:20.050Z,16.09
2023-05-16T01:56:54.749Z,16.07
2023-05-16T01:59:23.616Z,16.03
2023-05-16T02:01:53.745Z,16.13
2023-05-16T02:04:20.777Z,15.99
2023-05-16T02:06:48.477Z,15.99
2023-05-16T02:09:15.528Z,15.97
2023-05-16T02:11:43.503Z,15.92
2023-05-16T02:14:11.877Z,16.20
2023-05-16T02:16:39.952Z,15.93
2023-05-16T02:19:07.112Z,16.38
2023-05-16T02:21:34.407Z,15.98
2023-05-16T02:24:01.800Z,15.83
2023-05-16T02:26:29.018Z,15.83
2023-05-16T02:28:56.008Z,15.98
2023-05-16T02:31:28.722Z,16.44
2023-05-16T02:33:55.987Z,15.83
2023-05-16T02:36:23.280Z,16.07
2023-05-16T02:38:50.326Z,16.59
2023-05-16T02:41:17.574Z,16.22
2023-05-16T02:43:46.897Z,16.70
2023-05-16T02:46:22.240Z,16.32
2023-05-16T02:48:51.172Z,16.39
2023-05-16T02:51:19.174Z,16.28
2023-05-16T02:53:46.292Z,16.31
2023-05-16T02:56:13.576Z,16.26
2023-05-16T02:58:40.699Z,16.28
2023-05-16T03:01:08.029Z,16.67
2023-05-16T03:03:36.694Z,16.50
2023-05-16T03:06:06.131Z,16.24
2023-05-16T03:08:33.522Z,15.88
2023-05-16T03:11:01.207Z,16.18
2023-05-16T03:13:30.094Z,16.05
2023-05-16T03:15:57.539Z,16.03
2023-05-16T03:18:24.672Z,15.99
2023-05-16T03:20:54.948Z,16.29
2023-05-16T03:23:23.750Z,15.83
2023-05-16T03:25:51.551Z,15.86
2023-05-16T03:28:18.656Z,15.99
2023-05-16T03:30:46.139Z,16.42
2023-05-16T03:33:13.090Z,16.09
2023-05-16T03:35:40.975Z,16.04
2023-05-16T03:38:08.298Z,16.52
2023-05-16T03:40:37.087Z,16.51
2023-05-16T03:43:04.231Z,16.06
2023-05-16T03:45:31.753Z,16.52
2023-05-16T03:47:59.025Z,16.51
2023-05-16T03:50:28.923Z,16.45
2023-05-16T03:52:56.087Z,16.10
2023-05-16T03:55:23.436Z,16.15
2023-05-16T03:57:52.592Z,16.49
2023-05-16T04:00:20.232Z,16.09
2023-05-16T04:02:47.604Z,16.39
2023-05-16T04:05:15.591Z,16.47
2023-05-16T04:07:42.659Z,15.97
2023-05-16T04:10:10.960Z,16.42
2023-05-16T04:12:38.173Z,16.08
2023-05-16T04:15:10.763Z,15.97
2023-05-16T04:17:39.972Z,16.43
2023-05-16T04:20:07.857Z,15.76
2023-05-16T04:22:35.840Z,15.82
2023-05-16T04:25:03.222Z,15.82
2023-05-16T04:27:32.772Z,16.21
2023-05-16T04:30:00.387Z,15.84
2023-05-16T04:32:29.068Z,16.25
2023-05-16T04:34:56.443Z,16.57
2023-05-16T04:37:23.736Z,16.37
2023-05-16T04:39:51.606Z,16.52
2023-05-16T04:42:18.966Z,16.54
2023-05-16T04:44:47.815Z,16.56
2023-05-16T04:47:15.167Z,16.51
2023-05-16T04:49:43.822Z,16.51
2023-05-16T04:52:11.733Z,16.50
2023-05-16T04:54:39.759Z,16.02
2023-05-16T04:57:06.807Z,16.07
2023-05-16T04:59:34.068Z,16.37
2023-05-16T05:02:01.584Z,16.41
2023-05-16T05:04:28.964Z,16.49
2023-05-16T05:06:57.853Z,16.57
2023-05-16T05:09:25.049Z,16.60
2023-05-16T05:11:52.451Z,16.53
2023-05-16T05:14:19.778Z,16.60
2023-05-16T05:16:46.822Z,16.45
2023-05-16T05:19:14.743Z,16.37
2023-05-16T05:21:42.339Z,16.37
2023-05-16T05:24:11.480Z,15.98
2023-05-16T05:26:38.490Z,16.34
2023-05-16T05:29:06.474Z,15.95
2023-05-16T05:31:35.081Z,15.89
2023-05-16T05:34:03.214Z,15.88
2023-05-16T05:36:31.095Z,15.85
2023-05-16T05:38:58.612Z,16.27
2023-05-16T05:41:27.304Z,16.27
2023-05-16T05:43:54.724Z,15.90
2023-05-16T05:46:21.923Z,15.88
2023-05-16T05:48:49.976Z,16.26
2023-05-16T05:51:17.782Z,15.90
2023-05-16T05:53:45.405Z,15.87
2023-05-16T05:56:12.495Z,15.84
2023-05-16T05:58:42.170Z,16.23
2023-05-16T06:01:10.908Z,16.22
2023-05-16T06:03:41.320Z,16.16
2023-05-16T06:06:09.028Z,15.72
2023-05-16T06:08:36.528Z,15.68
2023-05-16T06:11:03.794Z,16.14
2023-05-16T06:13:31.270Z,15.75
2023-05-16T06:15:59.619Z,15.69
2023-05-16T06:18:27.047Z,15.80
2023-05-16T06:20:54.419Z,16.14
2023-05-16T06:23:22.143Z,16.18
2023-05-16T06:25:49.184Z,15.77
2023-05-16T06:28:16.430Z,16.25
2023-05-16T06:30:43.450Z,15.79
2023-05-16T06:33:12.396Z,16.13
2023-05-16T06:35:39.814Z,15.53
2023-05-16T06:38:07.037Z,15.90
2023-05-16T06:40:34.005Z,16.33
2023-05-16T06:43:01.296Z,15.96
2023-05-16T06:45:28.372Z,15.96
2023-05-16T06:47:57.678Z,16.22
2023-05-16T06:50:25.999Z,16.44
2023-05-16T06:52:53.519Z,16.13
2023-05-16T06:55:20.705Z,16.19
2023-05-16T06:57:48.106Z,16.28
2023-05-16T07:00:16.291Z,16.21
2023-05-16T07:02:43.706Z,16.43
2023-05-16T07:05:11.027Z,16.43
2023-05-16T07:07:40.315Z,16.82
2023-05-16T07:10:08.237Z,16.56
2023-05-16T07:12:36.422Z,16.52
2023-05-16T07:15:04.370Z,16.97
2023-05-16T07:17:31.776Z,16.56
2023-05-16T07:19:58.841Z,16.36
2023-05-16T07:22:26.514Z,17.06
2023-05-16T07:24:57.235Z,16.69
2023-05-16T07:27:24.875Z,17.09
2023-05-16T07:29:51.965Z,16.76
2023-05-16T07:32:19.651Z,16.68
2023-05-16T07:34:46.964Z,16.81
2023-05-16T07:37:16.195Z,17.26
2023-05-16T07:39:43.348Z,16.75
2023-05-16T07:42:12.074Z,16.77
2023-05-16T07:44:40.292Z,16.71
2023-05-16T07:47:07.769Z,16.97
2023-05-16T07:49:34.752Z,17.07
2023-05-16T07:52:02.218Z,16.96
2023-05-16T07:54:29.255Z,17.02
2023-05-16T07:56:56.579Z,17.41
2023-05-16T07:59:25.106Z,17.61
2023-05-16T08:01:52.223Z,17.64
2023-05-16T08:04:20.256Z,17.23
2023-05-16T08:06:47.635Z,17.32
2023-05-16T08:09:14.810Z,17.35
2023-05-16T08:11:45.253Z,17.48
2023-05-16T08:14:12.315Z,17.95
2023-05-16T08:16:56.035Z,18.11
2023-05-16T08:19:23.223Z,18.25
2023-05-16T08:21:51.092Z,18.27
2023-05-16T08:24:18.460Z,18.10
2023-05-16T08:26:45.821Z,18.78
2023-05-16T08:29:12.901Z,18.65
2023-05-16T08:31:40.535Z,19.17
2023-05-16T08:34:10.440Z,18.99
2023-05-16T08:36:37.832Z,19.57
2023-05-16T08:39:05.210Z,19.74
2023-05-16T08:41:32.749Z,19.20
2023-05-16T08:44:00.269Z,19.47
2023-05-16T08:46:29.245Z,19.53
2023-05-16T08:49:01.371Z,19.50
2023-05-16T08:51:35.486Z,19.45
2023-05-16T08:54:06.866Z,19.43
2023-05-16T08:56:35.087Z,19.48
2023-05-16T08:59:03.007Z,19.69
2023-05-16T09:01:31.104Z,19.80
2023-05-16T09:03:58.856Z,19.74
2023-05-16T09:06:26.950Z,19.72
2023-05-16T09:08:56.388Z,19.66
2023-05-16T09:11:23.980Z,19.34
2023-05-16T09:13:51.211Z,19.46
2023-05-16T09:16:19.629Z,19.76
2023-05-16T09:18:57.817Z,19.72
2023-05-16T09:21:28.852Z,19.45
2023-05-16T09:24:02.424Z,19.49
2023-05-16T09:26:29.934Z,19.92
2023-05-16T09:28:57.369Z,19.57
2023-05-16T09:31:31.867Z,19.97
2023-05-16T09:33:59.379Z,19.92
2023-05-16T09:36:26.714Z,20.05
2023-05-16T09:38:54.268Z,19.97
2023-05-16T09:41:23.269Z,19.88
2023-05-16T09:43:50.565Z,20.14
2023-05-16T09:46:19.885Z,20.03
2023-05-16T09:48:48.194Z,19.95
2023-05-16T09:51:16.211Z,19.54
2023-05-16T09:53:43.732Z,19.43
2023-05-16T09:56:12.746Z,19.42
2023-05-16T09:58:41.616Z,19.73
2023-05-16T10:01:10.594Z,19.30
2023-05-16T10:03:39.288Z,19.21
2023-05-16T10:06:07.994Z,19.29
2023-05-16T10:08:36.755Z,19.33
2023-05-16T10:11:05.970Z,19.37
2023-05-16T10:13:34.717Z,19.46
2023-05-16T10:16:09.442Z,19.42
2023-05-16T10:18:38.571Z,19.75
2023-05-16T10:21:10.466Z,19.62
2023-05-16T10:23:42.527Z,19.48
2023-05-16T10:26:14.133Z,19.62
2023-05-16T10:28:42.034Z,19.97
2023-05-16T10:31:11.988Z,19.63
2023-05-16T10:33:39.877Z,19.48
2023-05-16T10:36:08.789Z,19.77
2023-05-16T10:38:37.517Z,20.20
2023-05-16T10:41:05.665Z,19.82
2023-05-16T10:43:33.678Z,20.51
2023-05-16T10:46:04.610Z,20.39
2023-05-16T10:48:35.305Z,20.44
2023-05-16T10:51:03.867Z,20.40
2023-05-16T10:53:33.068Z,20.39
2023-05-16T10:56:11.500Z,20.45
2023-05-16T10:58:47.130Z,20.58
2023-05-16T11:01:23.317Z,20.18
2023-05-16T11:04:10.283Z,19.87
2023-05-16T11:06:49.603Z,20.10
2023-05-16T11:09:22.628Z,20.34
2023-05-16T11:12:09.789Z,19.92
2023-05-16T11:14:38.995Z,19.77
2023-05-16T11:17:10.414Z,20.44
2023-05-16T11:19:43.819Z,20.48
2023-05-16T11:22:22.544Z,20.50
2023-05-16T11:24:55.156Z,20.18
2023-05-16T11:27:24.813Z,20.57
2023-05-16T11:29:52.533Z,20.23
2023-05-16T11:32:22.420Z,20.35
2023-05-16T11:34:51.990Z,20.71
2023-05-16T11:37:20.420Z,20.77
2023-05-16T11:39:47.836Z,20.65
2023-05-16T11:42:15.292Z,20.39
2023-05-16T11:44:42.643Z,20.80
2023-05-16T11:47:10.282Z,20.65
2023-05-16T11:49:37.468Z,20.42
2023-05-16T11:52:09.651Z,20.73
2023-05-16T11:54:37.892Z,20.56
2023-05-16T11:57:05.859Z,20.67
2023-05-16T11:59:32.961Z,21.09
2023-05-16T12:02:04.977Z,21.15
2023-05-16T12:04:32.163Z,20.48
2023-05-16T12:07:01.497Z,20.80
2023-05-16T12:09:30.028Z,21.09
2023-05-16T12:11:57.770Z,20.76
2023-05-16T12:14:26.191Z,20.77
2023-05-16T12:16:54.156Z,21.15
2023-05-16T12:19:21.862Z,21.16
2023-05-16T12:21:53.186Z,21.32
2023-05-16T12:24:21.713Z,21.02
2023-05-16T12:26:53.683Z,21.63
2023-05-16T12:29:21.832Z,21.40
2023-05-16T12:31:53.507Z,21.34
2023-05-16T12:34:21.730Z,21.55
2023-05-16T12:36:51.776Z,21.32
2023-05-16T12:39:19.771Z,21.98
2023-05-16T12:41:47.373Z,21.48
2023-05-16T12:44:17.904Z,21.61
2023-05-16T12:46:46.495Z,22.06
2023-05-16T12:49:15.109Z,21.73
2023-05-16T12:51:50.026Z,21.77
2023-05-16T12:54:17.872Z,21.71
2023-05-16T12:56:45.200Z,21.74
2023-05-16T12:59:12.479Z,21.63
2023-05-16T13:01:42.270Z,21.51
2023-05-16T13:04:14.672Z,21.77
2023-05-16T13:06:57.768Z,21.58
2023-05-16T13:09:29.962Z,20.89
2023-05-16T13:11:58.464Z,21.06
2023-05-16T13:14:25.800Z,21.20
2023-05-16T13:16:54.424Z,21.33
2023-05-16T13:19:23.190Z,21.32
2023-05-16T13:21:50.669Z,20.59
2023-05-16T13:24:17.705Z,21.02
2023-05-16T13:26:45.233Z,21.31
2023-05-16T13:29:12.413Z,21.32
2023-05-16T13:31:39.933Z,21.39
2023-05-16T13:34:08.686Z,21.44
2023-05-16T13:36:52.093Z,21.23
2023-05-16T13:39:22.185Z,21.49
2023-05-16T13:41:49.725Z,21.52
2023-05-16T13:44:16.968Z,21.80
2023-05-16T13:46:44.535Z,22.12
2023-05-16T13:49:13.100Z,22.11
2023-05-16T13:51:40.453Z,21.72
2023-05-16T13:54:07.767Z,22.22
2023-05-16T13:56:35.109Z,21.80
2023-05-16T13:59:06.513Z,21.85
2023-05-16T14:04:04.121Z,21.80
2023-05-16T14:06:33.560Z,22.28
2023-05-16T14:09:00.916Z,22.01
2023-05-16T14:11:29.372Z,22.03
2023-05-16T14:13:57.017Z,22.36
2023-05-16T14:16:24.657Z,22.05
2023-05-16T14:18:52.107Z,22.03
2023-05-16T14:21:19.803Z,22.35
2023-05-16T14:23:48.680Z,22.26
2023-05-16T14:26:16.636Z,22.08
2023-05-16T14:28:43.999Z,22.23
2023-05-16T14:31:11.571Z,22.32
2023-05-16T14:33:38.620Z,22.34
2023-05-16T14:36:08.519Z,21.96
2023-05-16T14:38:35.912Z,22.45
2023-05-16T14:41:04.811Z,22.41
2023-05-16T14:43:32.878Z,22.43
2023-05-16T14:46:01.885Z,22.47
2023-05-16T14:48:28.971Z,22.67
2023-05-16T14:50:56.835Z,22.56
2023-05-16T14:53:24.060Z,22.46
2023-05-16T14:55:51.843Z,22.33
2023-05-16T14:58:20.541Z,21.83
2023-05-16T15:00:47.954Z,21.79
2023-05-16T15:03:16.897Z,21.71
2023-05-16T15:05:44.672Z,21.35
2023-05-16T15:08:11.880Z,21.42
2023-05-16T15:10:39.399Z,21.43
2023-05-16T15:13:06.837Z,21.92
2023-05-16T15:15:38.588Z,21.42
2023-05-16T15:18:06.215Z,21.54
2023-05-16T15:20:33.593Z,21.18
2023-05-16T15:23:00.827Z,21.29
2023-05-16T15:25:28.469Z,21.02
2023-05-16T15:27:56.233Z,21.31
2023-05-16T15:30:23.844Z,21.27
2023-05-16T15:32:52.483Z,21.00
2023-05-16T15:35:19.967Z,21.37
2023-05-16T15:37:47.020Z,21.14
2023-05-16T15:40:14.667Z,21.22
2023-05-16T15:42:44.291Z,21.35
2023-05-16T15:45:12.495Z,21.48
2023-05-16T15:47:39.777Z,21.41
2023-05-16T15:50:09.600Z,21.80
2023-05-16T15:52:36.991Z,21.45
2023-05-16T15:55:05.028Z,21.43
2023-05-16T15:57:32.116Z,21.84
2023-05-16T15:59:59.441Z,21.39
2023-05-16T16:02:26.893Z,21.69
2023-05-16T16:04:54.521Z,21.90
2023-05-16T16:07:23.394Z,21.57
2023-05-16T16:09:52.473Z,21.58
2023-05-16T16:12:19.675Z,22.04
2023-05-16T16:14:49.557Z,21.85
2023-05-16T16:17:16.841Z,21.70
2023-05-16T16:19:44.122Z,21.54
2023-05-16T16:22:11.242Z,22.22
2023-05-16T16:24:39.842Z,21.78
2023-05-16T16:27:06.878Z,21.75
2023-05-16T16:29:34.251Z,21.67
2023-05-16T16:32:01.431Z,21.70
2023-05-16T16:34:28.774Z,21.95
2023-05-16T16:36:55.972Z,21.86
2023-05-16T16:39:23.548Z,21.76
2023-05-16T16:41:53.402Z,21.82
2023-05-16T16:44:21.229Z,21.43
2023-05-16T16:46:48.537Z,21.79
2023-05-16T16:49:16.810Z,21.77
2023-05-16T16:51:43.902Z,21.46
2023-05-16T16:54:11.621Z,21.64
2023-05-16T16:56:38.628Z,21.30
2023-05-16T16:59:07.827Z,21.70
2023-05-16T17:01:35.224Z,21.58
2023-05-16T17:04:03.898Z,21.45
2023-05-16T17:06:31.315Z,21.38
2023-05-16T17:09:03.505Z,21.33
2023-05-16T17:11:31.457Z,20.93
2023-05-16T17:13:59.759Z,20.88
2023-05-16T17:16:29.438Z,21.22
2023-05-16T17:18:56.876Z,21.21
2023-05-16T17:21:23.970Z,21.18
2023-05-16T17:23:51.600Z,21.19
2023-05-16T17:26:18.788Z,20.74
2023-05-16T17:28:46.477Z,20.76
2023-05-16T17:31:13.472Z,20.77
2023-05-16T17:33:42.189Z,20.97
2023-05-16T17:36:09.226Z,20.56
2023-05-16T17:38:36.556Z,20.43
2023-05-16T17:41:03.869Z,20.80
2023-05-16T17:43:31.458Z,20.42
2023-05-16T17:45:58.579Z,20.38
2023-05-16T17:48:25.968Z,20.26
2023-05-16T17:50:54.337Z,20.21
2023-05-16T17:53:21.897Z,20.20
2023-05-16T17:55:49.808Z,20.59
2023-05-16T17:58:18.033Z,20.58
2023-05-16T18:00:46.680Z,20.24
2023-05-16T18:03:14.799Z,20.16
2023-05-16T18:05:42.614Z,20.44
2023-05-16T18:08:11.442Z,19.57
2023-05-16T18:10:50.860Z,20.23
2023-05-16T18:13:19.269Z,20.23
2023-05-16T18:15:46.365Z,20.19
2023-05-16T18:18:13.808Z,19.72
2023-05-16T18:20:40.958Z,20.09
2023-05-16T18:23:08.574Z,19.65
2023-05-16T18:25:37.206Z,19.85
2023-05-16T18:28:04.839Z,19.57
2023-05-16T18:30:31.855Z,19.48
2023-05-16T18:32:59.925Z,19.46
2023-05-16T18:35:28.491Z,19.78
2023-05-16T18:37:56.074Z,19.72
2023-05-16T18:40:23.295Z,19.28
2023-05-16T18:42:52.355Z,19.26
2023-05-16T18:45:19.651Z,19.68
2023-05-16T18:47:47.353Z,19.36
2023-05-16T18:50:14.559Z,18.94
2023-05-16T18:52:42.003Z,19.68
2023-05-16T18:55:09.608Z,19.66
2023-05-16T18:57:36.873Z,19.59
2023-05-16T19:00:07.619Z,19.12
2023-05-16T19:05:08.851Z,19.54
2023-05-16T19:07:36.581Z,19.09
2023-05-16T19:10:04.381Z,19.02
2023-05-16T19:12:31.996Z,19.21
2023-05-16T19:14:59.125Z,19.20
2023-05-16T19:17:27.844Z,18.73
2023-05-16T19:19:55.235Z,18.65
2023-05-16T19:22:22.578Z,18.58
2023-05-16T19:24:49.715Z,18.47
2023-05-16T19:27:17.016Z,18.42
2023-05-16T19:29:43.982Z,18.38
2023-05-16T19:32:11.660Z,18.74
2023-05-16T19:34:40.712Z,18.30
2023-05-16T19:37:09.021Z,18.50
2023-05-16T19:39:36.158Z,18.66
2023-05-16T19:42:07.612Z,18.29
2023-05-16T19:44:35.285Z,18.22
2023-05-16T19:47:02.830Z,18.34
2023-05-16T19:49:31.657Z,18.31
2023-05-16T19:52:00.424Z,18.14
2023-05-16T19:54:27.498Z,18.25
2023-05-16T19:56:56.030Z,18.07
2023-05-16T19:59:23.226Z,18.59
2023-05-16T20:01:50.552Z,18.56
2023-05-16T20:04:17.824Z,18.50
2023-05-16T20:06:45.181Z,18.46
2023-05-16T20:09:13.735Z,18.43
2023-05-16T20:11:41.232Z,18.01
2023-05-16T20:14:08.181Z,18.38
2023-05-16T20:16:35.693Z,18.21
2023-05-16T20:19:02.809Z,18.64
2023-05-16T20:21:30.928Z,18.60
2023-05-16T20:23:58.000Z,18.15
2023-05-16T20:26:27.188Z,18.14
2023-05-16T20:28:54.288Z,18.54
2023-05-16T20:31:21.727Z,18.16
2023-05-16T20:33:50.217Z,18.11
2023-05-16T20:36:17.851Z,18.17
2023-05-16T20:38:44.786Z,17.95
2023-05-16T20:41:12.354Z,18.53
2023-05-16T20:43:40.789Z,18.19
2023-05-16T20:46:08.332Z,18.17
2023-05-16T20:48:35.431Z,18.38
2023-05-16T20:51:02.816Z,17.75
2023-05-16T20:53:30.156Z,18.25
2023-05-16T20:55:57.556Z,17.76
2023-05-16T20:58:24.550Z,18.26
2023-05-16T21:00:53.263Z,17.78
2023-05-16T21:03:21.246Z,18.22
2023-05-16T21:05:48.609Z,18.23
2023-05-16T21:08:15.950Z,18.25
2023-05-16T21:10:43.646Z,18.26
2023-05-16T21:13:10.870Z,17.83
2023-05-16T21:15:39.574Z,17.89
2023-05-16T21:18:08.200Z,18.33
2023-05-16T21:20:35.498Z,17.91
2023-05-16T21:23:02.461Z,17.97
2023-05-16T21:25:30.061Z,18.30
2023-05-16T21:27:57.182Z,18.39
2023-05-16T21:30:24.673Z,17.97
2023-05-16T21:32:51.895Z,18.39
2023-05-16T21:35:20.770Z,18.10
2023-05-16T21:37:47.812Z,17.85
2023-05-16T21:40:19.135Z,17.83
2023-05-16T21:42:46.628Z,17.74
2023-05-16T21:45:16.583Z,18.12
2023-05-16T21:47:43.979Z,17.70
2023-05-16T21:50:11.928Z,17.99
2023-05-16T21:52:40.858Z,17.56
2023-05-16T21:55:08.997Z,17.94
2023-05-16T21:57:36.364Z,17.51
2023-05-16T22:00:06.769Z,17.57
2023-05-16T22:02:33.989Z,17.61
2023-05-16T22:05:01.549Z,17.98
2023-05-16T22:07:29.358Z,17.64
2023-05-16T22:09:58.652Z,17.96
2023-05-16T22:12:26.578Z,17.45
2023-05-16T22:14:54.416Z,18.23
2023-05-16T22:17:21.572Z,18.26
2023-05-16T22:19:49.287Z,17.84
2023-05-16T22:22:16.523Z,17.87
2023-05-16T22:24:43.761Z,17.80
2023-05-16T22:27:12.208Z,17.89
2023-05-16T22:29:39.337Z,18.23
2023-05-16T22:32:08.046Z,17.92
2023-05-16T22:34:35.760Z,18.22
2023-05-16T22:37:02.823Z,17.80
2023-05-16T22:39:30.054Z,17.73
2023-05-16T22:41:57.197Z,17.60
2023-05-16T22:44:25.996Z,17.97
2023-05-16T22:46:56.040Z,17.34
2023-05-16T22:49:23.526Z,17.36
2023-05-16T22:51:53.069Z,17.81
2023-05-16T22:54:20.957Z,17.44
2023-05-16T22:56:47.988Z,17.41
2023-05-16T22:59:15.618Z,17.82
2023-05-16T23:01:44.041Z,17.47
2023-05-16T23:04:11.414Z,17.34
2023-05-16T23:06:38.704Z,17.35
2023-05-16T23:09:06.106Z,17.84
2023-05-16T23:11:33.250Z,17.78
2023-05-16T23:14:00.752Z,17.27
2023-05-16T23:16:28.969Z,17.48
2023-05-16T23:18:58.118Z,17.24
2023-05-16T23:21:25.157Z,17.58
2023-05-16T23:23:52.777Z,17.15
2023-05-16T23:26:19.837Z,17.16
2023-05-16T23:28:47.163Z,17.22
2023-05-16T23:31:14.181Z,17.25
2023-05-16T23:33:46.930Z,17.21
2023-05-16T23:36:15.357Z,17.22
2023-05-16T23:38:42.672Z,17.21
2023-05-16T23:41:09.690Z,17.60
2023-05-16T23:43:37.308Z,17.60
2023-05-16T23:46:04.257Z,17.36
2023-05-16T23:48:31.627Z,17.22
2023-05-16T23:50:58.983Z,17.55
2023-05-16T23:53:29.493Z,17.51
2023-05-16T23:55:56.432Z,17.50
2023-05-16T23:58:23.760Z,17.51
